createdAt,value
2019-03-08T00:02:54.109Z,9.63
2019-03-08T00:12:59.529Z,6.80
2019-03-08T00:23:05.980Z,6.73
2019-03-08T00:33:11.343Z,8.37
2019-03-08T00:43:16.727Z,7.03
2019-03-08T00:53:22.098Z,7.73
2019-03-08T01:03:27.665Z,8.83
2019-03-08T01:13:33.269Z,10.53
2019-03-08T01:23:38.625Z,10.70
2019-03-08T01:33:44.053Z,9.40
2019-03-08T01:43:49.420Z,5.87
2019-03-08T01:53:54.795Z,6.83
2019-03-08T02:04:00.175Z,6.40
2019-03-08T02:14:05.625Z,10.03
2019-03-08T02:24:11.028Z,7.83
2019-03-08T02:34:16.384Z,8.97
2019-03-08T02:44:21.749Z,9.67
2019-03-08T02:54:27.121Z,8.70
2019-03-08T03:04:32.476Z,9.83
2019-03-08T03:14:37.836Z,8.23
2019-03-08T03:24:43.185Z,10.00
2019-03-08T03:34:48.554Z,9.93
2019-03-08T03:44:53.911Z,7.53
2019-03-08T03:54:59.281Z,8.03
2019-03-08T04:05:05.595Z,8.47
2019-03-08T04:15:19.209Z,8.93
2019-03-08T04:25:25.314Z,10.57
2019-03-08T04:35:30.668Z,14.33
2019-03-08T04:45:36.136Z,12.23
2019-03-08T04:55:41.510Z,12.67
2019-03-08T05:05:46.893Z,10.97
2019-03-08T05:15:52.236Z,11.43
2019-03-08T05:25:57.760Z,16.73
2019-03-08T05:36:03.157Z,14.27
2019-03-08T05:46:08.528Z,12.33
2019-03-08T05:56:13.916Z,14.10
2019-03-08T06:06:19.256Z,16.63
2019-03-08T06:16:24.803Z,13.87
2019-03-08T06:26:30.197Z,15.20
2019-03-08T06:36:37.159Z,19.90
2019-03-08T06:46:42.641Z,16.23
2019-03-08T06:56:47.991Z,13.60
2019-03-08T07:06:53.505Z,10.13
2019-03-08T07:16:58.844Z,15.23
2019-03-08T07:27:06.546Z,16.30
2019-03-08T07:37:32.822Z,12.40
2019-03-08T07:47:52.239Z,6.83
2019-03-08T07:57:59.200Z,6.03
2019-03-08T08:08:06.300Z,5.00
2019-03-08T08:18:17.638Z,5.27
2019-03-08T08:28:28.863Z,7.70
2019-03-08T08:38:41.831Z,5.87
2019-03-08T08:49:00.908Z,5.10
2019-03-08T08:59:17.132Z,6.33
2019-03-08T09:09:27.015Z,5.33
2019-03-08T09:19:42.937Z,6.23
2019-03-08T09:29:49.861Z,4.53
2019-03-08T09:39:57.067Z,6.58
2019-03-08T09:50:16.112Z,11.83
2019-03-08T10:00:25.775Z,7.23
2019-03-08T10:10:48.948Z,5.80
2019-03-08T10:20:58.747Z,3.30
2019-03-08T10:31:05.699Z,6.30
2019-03-08T10:41:18.419Z,6.10
2019-03-08T10:51:27.904Z,7.47
2019-03-08T11:01:35.003Z,3.80
2019-03-08T11:11:47.981Z,3.30
2019-03-08T11:22:11.626Z,3.53
2019-03-08T11:32:27.536Z,6.70
2019-03-08T11:42:34.520Z,5.87
2019-03-08T11:52:57.008Z,5.13
2019-03-08T12:03:06.885Z,5.27
2019-03-08T12:13:13.864Z,4.30
2019-03-08T12:23:21.125Z,8.80
2019-03-08T12:33:28.152Z,8.77
2019-03-08T12:43:45.161Z,4.30
2019-03-08T12:53:55.426Z,5.13
2019-03-08T13:04:18.896Z,7.60
2019-03-08T13:14:24.354Z,8.73
2019-03-08T13:24:29.736Z,12.60
2019-03-08T13:34:35.109Z,8.23
2019-03-08T13:44:40.481Z,8.27
2019-03-08T13:54:45.855Z,5.80
2019-03-08T14:04:51.178Z,7.87
2019-03-08T14:14:56.674Z,4.40
2019-03-08T14:25:02.061Z,6.50
2019-03-08T14:35:07.615Z,11.73
2019-03-08T14:45:14.885Z,5.43
2019-03-08T14:55:22.730Z,7.47
2019-03-08T15:05:27.232Z,5.73
2019-03-08T15:15:32.707Z,7.90
2019-03-08T15:25:39.583Z,8.43
2019-03-08T15:35:46.725Z,9.50
2019-03-08T15:45:52.077Z,10.50
2019-03-08T15:55:57.416Z,12.53
2019-03-08T16:06:02.977Z,15.97
2019-03-08T16:16:09.748Z,12.40
2019-03-08T16:26:15.243Z,12.90
2019-03-08T16:36:25.916Z,22.50
2019-03-08T16:46:44.666Z,26.13
2019-03-08T16:56:54.341Z,30.23
2019-03-08T17:07:55.265Z,38.28
2019-03-08T17:18:08.030Z,31.97
2019-03-08T17:28:27.616Z,27.30
2019-03-08T17:38:54.876Z,35.03
2019-03-08T17:49:01.367Z,23.43
2019-03-08T17:59:14.453Z,25.57
2019-03-08T18:09:24.040Z,27.93
2019-03-08T18:19:36.982Z,23.23
2019-03-08T18:29:47.126Z,25.57
2019-03-08T18:39:55.506Z,24.73
2019-03-08T18:50:02.462Z,30.43
2019-03-08T19:00:13.364Z,42.60
2019-03-08T19:10:27.939Z,51.07
2019-03-08T19:20:44.278Z,50.93
2019-03-08T19:30:51.322Z,51.57
2019-03-08T19:41:07.199Z,44.37
2019-03-08T19:51:17.428Z,46.50
2019-03-08T20:01:42.777Z,27.70
2019-03-08T20:11:53.146Z,25.93
2019-03-08T20:22:00.393Z,24.67
2019-03-08T20:32:10.212Z,20.33
2019-03-08T20:42:32.812Z,24.07
2019-03-08T20:52:38.190Z,30.90
2019-03-08T21:02:43.808Z,30.63
2019-03-08T21:12:49.192Z,26.37
2019-03-08T21:22:54.589Z,22.27
2019-03-08T21:33:00.088Z,21.57
2019-03-08T21:43:06.103Z,20.63
2019-03-08T21:53:11.490Z,19.73
2019-03-08T22:03:16.875Z,25.40
2019-03-08T22:13:22.251Z,15.77
2019-03-08T22:23:27.626Z,20.07
2019-03-08T22:33:34.035Z,22.90
2019-03-08T22:43:39.395Z,21.47
2019-03-08T22:53:44.848Z,22.87
2019-03-08T23:03:50.211Z,25.90
2019-03-08T23:13:55.598Z,26.47
2019-03-08T23:24:01.225Z,33.57
2019-03-08T23:34:07.040Z,41.07
2019-03-08T23:44:13.924Z,44.23
2019-03-08T23:54:19.320Z,49.77
